createdAt,value
2019-03-26T00:01:06.711Z,96.80
2019-03-26T00:03:35.185Z,96.90
2019-03-26T00:06:03.597Z,97.00
2019-03-26T00:08:32.060Z,97.00
2019-03-26T00:11:02.109Z,97.40
2019-03-26T00:13:30.569Z,97.00
2019-03-26T00:15:59.144Z,97.00
2019-03-26T00:18:27.531Z,96.80
2019-03-26T00:20:55.935Z,96.90
2019-03-26T00:23:24.337Z,96.90
2019-03-26T00:25:52.744Z,96.90
2019-03-26T00:28:21.126Z,97.00
2019-03-26T00:30:49.503Z,97.00
2019-03-26T00:33:17.930Z,97.20
2019-03-26T00:35:48.896Z,97.30
2019-03-26T00:38:17.304Z,97.50
2019-03-26T00:40:45.708Z,97.40
2019-03-26T00:43:14.098Z,97.40
2019-03-26T00:45:42.596Z,97.20
2019-03-26T00:48:11.011Z,97.20
2019-03-26T00:50:39.387Z,97.40
2019-03-26T00:53:07.766Z,97.80
2019-03-26T00:55:36.169Z,98.20
2019-03-26T00:58:04.550Z,98.50
2019-03-26T01:00:37.416Z,98.80
2019-03-26T01:03:06.047Z,98.80
2019-03-26T01:05:34.417Z,99.00
2019-03-26T01:08:02.827Z,99.40
2019-03-26T01:10:31.211Z,99.90
2019-03-26T01:12:59.620Z,99.90
2019-03-26T01:15:28.050Z,99.90
2019-03-26T01:17:56.511Z,99.90
2019-03-26T01:20:25.031Z,99.90
2019-03-26T01:22:53.510Z,99.90
2019-03-26T01:25:21.895Z,99.90
2019-03-26T01:27:50.331Z,99.90
2019-03-26T01:30:18.746Z,99.90
2019-03-26T01:32:47.128Z,99.90
2019-03-26T01:35:15.535Z,99.90
2019-03-26T01:37:43.916Z,99.90
2019-03-26T01:40:12.315Z,99.90
2019-03-26T01:42:40.699Z,99.90
2019-03-26T01:45:09.098Z,99.90
2019-03-26T01:47:37.506Z,99.90
2019-03-26T01:50:05.984Z,99.90
2019-03-26T01:52:34.463Z,99.90
2019-03-26T01:55:03.304Z,99.90
2019-03-26T01:57:31.707Z,99.90
2019-03-26T02:00:00.321Z,99.90
2019-03-26T02:02:28.708Z,99.90
2019-03-26T02:05:00.228Z,99.90
2019-03-26T02:07:27.138Z,99.90
2019-03-26T02:09:55.583Z,99.90
2019-03-26T02:12:23.963Z,99.90
2019-03-26T02:14:52.358Z,99.90
2019-03-26T02:17:20.835Z,99.90
2019-03-26T02:19:49.225Z,99.90
2019-03-26T02:22:17.635Z,99.90
2019-03-26T02:24:47.359Z,99.90
2019-03-26T02:27:15.851Z,99.90
2019-03-26T02:29:44.329Z,99.90
2019-03-26T02:32:12.746Z,99.90
2019-03-26T02:34:41.114Z,99.90
2019-03-26T02:37:09.598Z,99.90
2019-03-26T02:39:38.000Z,99.90
2019-03-26T02:42:06.391Z,99.90
2019-03-26T02:44:34.788Z,99.90
2019-03-26T02:47:03.195Z,99.90
2019-03-26T02:49:31.660Z,99.90
2019-03-26T02:52:00.040Z,99.90
2019-03-26T02:54:28.443Z,99.90
2019-03-26T02:56:56.826Z,99.90
2019-03-26T02:59:25.199Z,99.90
2019-03-26T03:01:53.741Z,99.90
2019-03-26T03:04:22.160Z,99.90
2019-03-26T03:06:50.574Z,99.90
2019-03-26T03:09:18.961Z,99.90
2019-03-26T03:11:47.376Z,99.90
2019-03-26T03:14:15.753Z,99.90
2019-03-26T03:16:45.123Z,99.90
2019-03-26T03:19:15.914Z,99.90
2019-03-26T03:21:43.553Z,99.90
2019-03-26T03:24:11.963Z,99.90
2019-03-26T03:26:40.342Z,99.90
2019-03-26T03:29:08.831Z,99.90
2019-03-26T03:31:37.337Z,99.90
2019-03-26T03:34:05.757Z,99.90
2019-03-26T03:36:34.150Z,99.90
2019-03-26T03:39:02.505Z,99.90
2019-03-26T03:41:30.909Z,99.90
2019-03-26T03:43:59.293Z,99.90
2019-03-26T03:46:27.681Z,99.90
2019-03-26T03:48:56.109Z,99.90
2019-03-26T03:51:25.013Z,99.90
2019-03-26T03:53:53.390Z,99.90
2019-03-26T03:56:21.785Z,99.90
2019-03-26T03:58:50.177Z,99.90
2019-03-26T04:01:18.551Z,99.90
2019-03-26T04:03:46.980Z,99.90
2019-03-26T04:06:15.358Z,99.90
2019-03-26T04:08:43.741Z,99.90
2019-03-26T04:11:12.144Z,99.90
2019-03-26T04:13:40.558Z,99.90
2019-03-26T04:16:09.000Z,99.90
2019-03-26T04:18:37.376Z,99.90
2019-03-26T04:21:05.799Z,99.90
2019-03-26T04:23:34.204Z,99.90
2019-03-26T04:26:02.605Z,99.90
2019-03-26T04:28:31.032Z,99.90
2019-03-26T04:30:59.406Z,99.90
2019-03-26T04:33:27.790Z,99.90
2019-03-26T04:35:58.311Z,99.90
2019-03-26T04:38:27.564Z,99.90
2019-03-26T04:40:56.616Z,99.90
2019-03-26T04:43:25.000Z,99.90
2019-03-26T04:45:53.414Z,99.90
2019-03-26T04:48:21.795Z,99.90
2019-03-26T04:50:50.288Z,99.90
2019-03-26T04:53:18.781Z,99.90
2019-03-26T04:55:47.238Z,99.90
2019-03-26T04:58:15.657Z,99.90
2019-03-26T05:00:44.026Z,99.90
2019-03-26T05:03:12.435Z,99.90
2019-03-26T05:05:40.851Z,99.90
2019-03-26T05:08:09.268Z,99.90
2019-03-26T05:10:37.646Z,99.90
2019-03-26T05:13:06.066Z,99.90
2019-03-26T05:15:34.471Z,99.90
2019-03-26T05:18:02.877Z,99.90
2019-03-26T05:20:31.304Z,99.90
2019-03-26T05:22:59.710Z,99.90
2019-03-26T05:25:47.480Z,99.90
2019-03-26T05:28:15.852Z,99.90
2019-03-26T05:30:44.239Z,99.90
2019-03-26T05:33:12.644Z,99.90
2019-03-26T05:35:41.074Z,99.90
2019-03-26T05:38:09.483Z,99.90
2019-03-26T05:40:37.924Z,99.90
2019-03-26T05:43:06.308Z,99.90
2019-03-26T05:45:34.717Z,99.90
2019-03-26T05:48:03.136Z,99.90
2019-03-26T05:50:31.615Z,99.90
2019-03-26T05:53:00.048Z,99.90
2019-03-26T05:55:28.539Z,99.90
2019-03-26T05:57:57.843Z,99.90
2019-03-26T06:00:26.386Z,99.90
2019-03-26T06:02:54.778Z,99.90
2019-03-26T06:05:23.167Z,99.90
2019-03-26T06:07:51.581Z,99.90
2019-03-26T06:10:19.964Z,99.90
2019-03-26T06:12:50.296Z,99.90
2019-03-26T06:15:18.429Z,99.90
2019-03-26T06:17:46.855Z,99.90
2019-03-26T06:20:15.236Z,99.90
2019-03-26T06:22:43.623Z,99.90
2019-03-26T06:25:12.035Z,99.90
2019-03-26T06:27:40.482Z,99.90
2019-03-26T06:30:09.436Z,99.90
2019-03-26T06:32:37.902Z,99.90
2019-03-26T06:35:08.437Z,99.90
2019-03-26T06:37:37.059Z,99.90
2019-03-26T06:40:07.914Z,99.90
2019-03-26T06:42:36.301Z,99.90
2019-03-26T06:45:09.411Z,99.90
2019-03-26T06:47:37.791Z,99.90
2019-03-26T06:50:08.152Z,99.90
2019-03-26T06:52:36.567Z,99.90
2019-03-26T06:55:08.003Z,99.90
2019-03-26T06:57:36.766Z,99.90
2019-03-26T07:00:10.356Z,99.90
2019-03-26T07:02:38.849Z,99.90
2019-03-26T07:05:07.263Z,99.90
2019-03-26T07:07:35.680Z,99.90
2019-03-26T07:10:06.834Z,99.90
2019-03-26T07:12:35.330Z,99.90
2019-03-26T07:15:04.953Z,99.90
2019-03-26T07:17:33.355Z,99.90
2019-03-26T07:20:01.783Z,99.90
2019-03-26T07:22:30.187Z,99.90
2019-03-26T07:24:58.573Z,99.90
2019-03-26T07:27:26.967Z,99.90
2019-03-26T07:29:55.521Z,99.90
2019-03-26T07:32:23.911Z,99.90
2019-03-26T07:34:52.306Z,99.90
2019-03-26T07:37:20.686Z,99.90
2019-03-26T07:39:49.095Z,99.90
2019-03-26T07:42:17.490Z,99.90
2019-03-26T07:44:45.900Z,99.90
2019-03-26T07:47:14.303Z,99.90
2019-03-26T07:49:42.715Z,99.90
2019-03-26T07:52:11.136Z,99.90
2019-03-26T07:54:39.546Z,99.90
2019-03-26T07:57:07.945Z,99.90
2019-03-26T07:59:36.335Z,99.90
2019-03-26T08:02:04.750Z,99.90
2019-03-26T08:04:33.172Z,99.90
2019-03-26T08:07:01.590Z,99.90
2019-03-26T08:09:31.739Z,99.90
2019-03-26T08:12:00.059Z,99.90
2019-03-26T08:14:28.517Z,99.90
2019-03-26T08:16:56.934Z,99.90
2019-03-26T08:19:25.330Z,99.90
2019-03-26T08:21:53.738Z,99.90
2019-03-26T08:24:22.134Z,99.90
2019-03-26T08:26:52.041Z,99.90
2019-03-26T08:29:20.673Z,99.90
2019-03-26T08:31:49.054Z,99.90
2019-03-26T08:34:17.463Z,99.90
2019-03-26T08:36:45.839Z,99.90
2019-03-26T08:39:14.261Z,99.90
2019-03-26T08:41:42.670Z,99.90
2019-03-26T08:44:11.052Z,99.90
2019-03-26T08:46:40.445Z,99.90
2019-03-26T08:49:08.821Z,99.90
2019-03-26T08:51:37.265Z,99.90
2019-03-26T08:54:05.684Z,99.90
2019-03-26T08:56:34.157Z,99.90
2019-03-26T08:59:02.477Z,99.90
2019-03-26T09:01:30.937Z,99.90
2019-03-26T09:03:59.327Z,99.90
2019-03-26T09:06:27.809Z,99.90
2019-03-26T09:08:56.218Z,99.90
2019-03-26T09:11:24.635Z,99.90
2019-03-26T09:13:53.101Z,99.90
2019-03-26T09:16:21.565Z,99.90
2019-03-26T09:18:49.999Z,99.90
2019-03-26T09:21:18.372Z,99.50
2019-03-26T09:23:46.859Z,99.50
2019-03-26T09:26:15.244Z,99.60
2019-03-26T09:28:43.655Z,99.90
2019-03-26T09:31:12.055Z,99.90
2019-03-26T09:33:40.515Z,99.90
2019-03-26T09:36:08.926Z,99.90
2019-03-26T09:38:39.181Z,99.90
2019-03-26T09:41:07.455Z,99.90
2019-03-26T09:43:35.835Z,99.90
2019-03-26T09:46:04.284Z,99.90
2019-03-26T09:48:32.674Z,99.70
2019-03-26T09:51:01.111Z,99.00
2019-03-26T09:53:29.549Z,98.20
2019-03-26T09:55:57.968Z,97.40
2019-03-26T09:58:26.508Z,96.90
2019-03-26T10:00:54.892Z,97.20
2019-03-26T10:03:23.289Z,96.70
2019-03-26T10:05:51.735Z,95.50
2019-03-26T10:08:20.213Z,95.20
2019-03-26T10:10:48.611Z,95.40
2019-03-26T10:13:17.001Z,95.50
2019-03-26T10:15:45.419Z,94.50
2019-03-26T10:18:13.900Z,94.40
2019-03-26T10:20:42.323Z,94.50
2019-03-26T10:23:10.740Z,94.60
2019-03-26T10:25:39.187Z,94.10
2019-03-26T10:28:07.591Z,93.80
2019-03-26T10:30:39.661Z,93.60
2019-03-26T10:33:08.205Z,93.40
2019-03-26T10:35:36.635Z,93.10
2019-03-26T10:38:05.031Z,92.90
2019-03-26T10:40:35.836Z,92.70
2019-03-26T10:43:04.296Z,93.20
2019-03-26T10:45:32.710Z,93.40
2019-03-26T10:48:01.079Z,92.80
2019-03-26T10:50:29.493Z,92.80
2019-03-26T10:52:57.881Z,93.20
2019-03-26T10:55:26.265Z,92.90
2019-03-26T10:57:54.770Z,93.50
2019-03-26T11:00:23.281Z,94.00
2019-03-26T11:02:54.074Z,93.90
2019-03-26T11:05:21.730Z,94.10
2019-03-26T11:07:50.237Z,94.10
2019-03-26T11:10:18.729Z,93.60
2019-03-26T11:12:47.258Z,93.00
2019-03-26T11:15:15.663Z,93.30
2019-03-26T11:17:44.087Z,93.60
2019-03-26T11:20:12.493Z,93.70
2019-03-26T11:22:40.866Z,93.50
2019-03-26T11:25:12.043Z,93.30
2019-03-26T11:27:39.365Z,93.30
2019-03-26T11:30:07.784Z,92.70
2019-03-26T11:32:36.231Z,91.80
2019-03-26T11:35:06.781Z,92.10
2019-03-26T11:37:36.152Z,91.40
2019-03-26T11:40:06.882Z,91.00
2019-03-26T11:42:35.311Z,90.20
2019-03-26T11:45:05.322Z,88.20
2019-03-26T11:47:33.736Z,87.10
2019-03-26T11:50:04.663Z,86.30
2019-03-26T11:52:32.271Z,85.10
2019-03-26T11:55:00.691Z,85.70
2019-03-26T11:57:29.198Z,86.80
2019-03-26T11:59:57.599Z,87.00
2019-03-26T12:02:26.126Z,85.60
2019-03-26T12:04:54.529Z,85.80
2019-03-26T12:07:23.008Z,85.70
2019-03-26T12:09:51.405Z,85.50
2019-03-26T12:12:20.151Z,85.30
2019-03-26T12:14:48.523Z,85.50
2019-03-26T12:17:16.903Z,85.40
2019-03-26T12:19:45.291Z,84.30
2019-03-26T12:22:13.691Z,83.20
2019-03-26T12:24:42.079Z,85.00
2019-03-26T12:27:10.497Z,84.00
2019-03-26T12:29:38.902Z,85.00
2019-03-26T12:32:07.315Z,81.90
2019-03-26T12:34:35.763Z,83.60
2019-03-26T12:37:04.220Z,83.40
2019-03-26T12:39:32.881Z,83.00
2019-03-26T12:42:01.286Z,83.80
2019-03-26T12:44:29.712Z,83.40
2019-03-26T12:46:58.472Z,83.10
2019-03-26T12:49:26.942Z,81.40
2019-03-26T12:51:55.364Z,81.10
2019-03-26T12:54:23.840Z,80.10
2019-03-26T12:56:52.256Z,79.80
2019-03-26T12:59:20.719Z,80.80
2019-03-26T13:01:49.115Z,81.30
2019-03-26T13:04:17.493Z,80.70
2019-03-26T13:06:47.850Z,80.70
2019-03-26T13:09:16.240Z,81.40
2019-03-26T13:11:44.638Z,82.00
2019-03-26T13:14:13.120Z,82.30
2019-03-26T13:16:41.541Z,81.90
2019-03-26T13:19:09.940Z,81.60
2019-03-26T13:21:38.432Z,81.20
2019-03-26T13:24:06.834Z,81.50
2019-03-26T13:26:35.213Z,81.40
2019-03-26T13:29:03.628Z,81.10
2019-03-26T13:31:32.087Z,81.00
2019-03-26T13:34:00.478Z,80.40
2019-03-26T13:36:28.855Z,79.00
2019-03-26T13:38:57.271Z,78.60
2019-03-26T13:41:25.652Z,79.20
2019-03-26T13:43:54.030Z,81.20
2019-03-26T13:46:22.547Z,81.80
2019-03-26T13:48:50.981Z,81.40
2019-03-26T13:51:19.390Z,80.60
2019-03-26T13:53:47.778Z,79.30
2019-03-26T13:56:16.195Z,76.60
2019-03-26T13:58:44.565Z,77.00
2019-03-26T14:01:13.071Z,78.40
2019-03-26T14:03:41.523Z,78.90
2019-03-26T14:06:09.933Z,78.80
2019-03-26T14:08:38.416Z,78.40
2019-03-26T14:11:06.804Z,78.60
2019-03-26T14:13:36.914Z,78.80
2019-03-26T14:16:05.290Z,78.70
2019-03-26T14:18:33.709Z,79.50
2019-03-26T14:21:02.126Z,78.80
2019-03-26T14:23:30.589Z,78.50
2019-03-26T14:25:58.984Z,78.70
2019-03-26T14:28:27.363Z,77.70
2019-03-26T14:30:55.774Z,78.20
2019-03-26T14:33:24.155Z,79.00
2019-03-26T14:35:52.571Z,80.40
2019-03-26T14:38:21.027Z,80.40
2019-03-26T14:40:55.186Z,80.70
2019-03-26T14:43:19.471Z,81.00
2019-03-26T14:45:47.868Z,80.50
2019-03-26T14:48:16.384Z,79.10
2019-03-26T14:50:44.794Z,78.00
2019-03-26T14:53:13.199Z,76.20
2019-03-26T14:55:41.620Z,76.30
2019-03-26T14:58:10.046Z,76.30
2019-03-26T15:00:38.491Z,76.30
2019-03-26T15:03:06.878Z,76.40
2019-03-26T15:05:35.279Z,76.50
2019-03-26T15:08:03.731Z,76.80
2019-03-26T15:10:32.208Z,76.80
2019-03-26T15:13:00.612Z,77.70
2019-03-26T15:15:28.996Z,78.20
2019-03-26T15:17:57.404Z,77.90
2019-03-26T15:20:25.802Z,78.20
2019-03-26T15:22:54.209Z,79.10
2019-03-26T15:25:22.638Z,80.10
2019-03-26T15:27:51.013Z,82.10
2019-03-26T15:30:19.831Z,84.20
2019-03-26T15:32:48.237Z,85.60
2019-03-26T15:35:16.627Z,85.60
2019-03-26T15:37:45.020Z,86.10
2019-03-26T15:40:13.473Z,86.30
2019-03-26T15:42:41.861Z,87.00
2019-03-26T15:45:10.235Z,88.40
2019-03-26T15:47:38.607Z,89.60
2019-03-26T15:50:07.080Z,90.30
2019-03-26T15:52:35.483Z,91.20
2019-03-26T15:55:04.783Z,91.40
2019-03-26T15:57:33.270Z,91.50
2019-03-26T16:00:01.653Z,91.80
2019-03-26T16:02:30.083Z,92.00
2019-03-26T16:04:58.536Z,92.10
2019-03-26T16:07:26.924Z,91.80
2019-03-26T16:09:55.349Z,91.50
2019-03-26T16:12:23.747Z,91.60
2019-03-26T16:14:52.144Z,91.90
2019-03-26T16:17:20.552Z,91.90
2019-03-26T16:19:48.947Z,92.20
2019-03-26T16:22:17.952Z,92.50
2019-03-26T16:24:46.476Z,93.80
2019-03-26T16:27:14.871Z,94.50
2019-03-26T16:29:43.275Z,95.00
2019-03-26T16:32:11.679Z,95.80
2019-03-26T16:34:40.059Z,96.20
2019-03-26T16:37:08.472Z,96.50
2019-03-26T16:39:36.936Z,96.60
2019-03-26T16:42:05.356Z,96.80
2019-03-26T16:44:33.734Z,96.90
2019-03-26T16:47:02.153Z,97.10
2019-03-26T16:49:30.535Z,96.90
2019-03-26T16:51:58.953Z,96.80
2019-03-26T16:54:27.319Z,96.90
2019-03-26T16:56:55.911Z,96.90
2019-03-26T16:59:24.913Z,97.00
2019-03-26T17:01:53.324Z,97.00
2019-03-26T17:04:21.731Z,97.30
2019-03-26T17:06:50.106Z,97.30
2019-03-26T17:09:18.527Z,97.20
2019-03-26T17:11:46.919Z,97.40
2019-03-26T17:14:15.343Z,97.90
2019-03-26T17:16:43.750Z,98.30
2019-03-26T17:19:12.162Z,98.70
2019-03-26T17:21:40.553Z,99.10
2019-03-26T17:24:08.950Z,99.30
2019-03-26T17:26:37.349Z,99.60
2019-03-26T17:29:05.743Z,99.90
2019-03-26T17:31:34.140Z,99.90
2019-03-26T17:34:02.551Z,99.90
2019-03-26T17:36:30.970Z,99.90
2019-03-26T17:38:59.354Z,99.90
2019-03-26T17:41:27.772Z,99.90
2019-03-26T17:43:56.170Z,99.90
2019-03-26T17:46:24.634Z,99.90
2019-03-26T17:48:53.043Z,99.90
2019-03-26T17:51:21.422Z,99.90
2019-03-26T17:53:49.842Z,99.90
2019-03-26T17:56:18.220Z,99.90
2019-03-26T17:58:46.654Z,99.90
2019-03-26T18:01:15.007Z,99.90
2019-03-26T18:03:43.482Z,99.90
2019-03-26T18:06:11.916Z,99.90
2019-03-26T18:08:40.271Z,99.90
2019-03-26T18:11:08.659Z,99.90
2019-03-26T18:13:37.077Z,99.90
2019-03-26T18:16:05.467Z,99.90
2019-03-26T18:18:33.871Z,99.90
2019-03-26T18:21:02.261Z,99.90
2019-03-26T18:23:30.676Z,99.90
2019-03-26T18:25:59.124Z,99.90
2019-03-26T18:28:27.534Z,99.90
2019-03-26T18:30:55.953Z,99.90
2019-03-26T18:33:24.447Z,99.90
2019-03-26T18:35:52.861Z,99.90
2019-03-26T18:38:21.268Z,99.90
2019-03-26T18:40:49.710Z,99.90
2019-03-26T18:43:18.133Z,99.90
2019-03-26T18:45:46.518Z,99.90
2019-03-26T18:48:14.951Z,99.90
2019-03-26T18:50:43.384Z,99.90
2019-03-26T18:53:11.820Z,99.90
2019-03-26T18:55:40.183Z,99.90
2019-03-26T18:58:08.583Z,99.90
2019-03-26T19:00:40.148Z,99.90
2019-03-26T19:03:08.990Z,99.90
2019-03-26T19:05:37.423Z,99.90
2019-03-26T19:08:05.824Z,99.90
2019-03-26T19:10:35.183Z,99.90
2019-03-26T19:13:03.647Z,99.90
2019-03-26T19:15:32.072Z,99.90
2019-03-26T19:18:00.465Z,99.90
2019-03-26T19:20:28.881Z,99.90
2019-03-26T19:22:57.298Z,99.90
2019-03-26T19:25:26.184Z,99.90
2019-03-26T19:27:54.592Z,99.90
2019-03-26T19:30:23.010Z,99.90
2019-03-26T19:32:51.416Z,99.90
2019-03-26T19:35:19.866Z,99.90
2019-03-26T19:37:48.220Z,99.90
2019-03-26T19:40:16.744Z,99.90
2019-03-26T19:42:45.143Z,99.90
2019-03-26T19:45:13.865Z,99.90
2019-03-26T19:47:42.279Z,99.90
2019-03-26T19:50:10.667Z,99.90
2019-03-26T19:52:39.093Z,99.90
2019-03-26T19:55:07.688Z,99.90
2019-03-26T19:57:36.730Z,99.90
2019-03-26T20:00:08.387Z,99.90
2019-03-26T20:02:36.848Z,99.90
2019-03-26T20:05:06.528Z,99.90
2019-03-26T20:07:35.572Z,99.90
2019-03-26T20:10:07.336Z,99.90
2019-03-26T20:12:36.481Z,99.90
2019-03-26T20:15:07.263Z,99.90
2019-03-26T20:17:35.682Z,99.90
2019-03-26T20:20:04.476Z,99.90
2019-03-26T20:22:32.851Z,99.90
2019-03-26T20:25:01.622Z,99.90
2019-03-26T20:27:29.988Z,99.90
2019-03-26T20:29:58.383Z,99.90
2019-03-26T20:32:26.771Z,99.90
2019-03-26T20:34:55.184Z,99.90
2019-03-26T20:37:23.556Z,99.90
2019-03-26T20:39:52.046Z,99.90
2019-03-26T20:42:20.440Z,99.90
2019-03-26T20:44:48.896Z,99.90
2019-03-26T20:47:17.276Z,99.90
2019-03-26T20:49:45.729Z,99.90
2019-03-26T20:52:14.138Z,99.90
2019-03-26T20:54:42.617Z,99.90
2019-03-26T20:57:11.000Z,99.90
2019-03-26T20:59:39.465Z,99.90
2019-03-26T21:02:07.917Z,99.90
2019-03-26T21:04:36.379Z,99.90
2019-03-26T21:07:04.804Z,99.90
2019-03-26T21:09:33.250Z,99.90
2019-03-26T21:12:01.669Z,99.90
2019-03-26T21:14:30.092Z,99.90
2019-03-26T21:16:58.483Z,99.90
2019-03-26T21:19:26.883Z,99.90
2019-03-26T21:21:55.295Z,99.90
2019-03-26T21:24:23.695Z,99.90
2019-03-26T21:26:52.126Z,99.90
2019-03-26T21:29:20.507Z,99.90
2019-03-26T21:31:48.909Z,99.90
2019-03-26T21:34:29.982Z,99.90
2019-03-26T21:36:47.416Z,99.90
2019-03-26T21:39:15.908Z,99.90
2019-03-26T21:41:44.319Z,99.90
2019-03-26T21:44:12.731Z,99.90
2019-03-26T21:46:41.240Z,99.90
2019-03-26T21:49:09.717Z,99.90
2019-03-26T21:51:38.160Z,99.90
2019-03-26T21:54:06.563Z,99.90
2019-03-26T21:56:35.044Z,99.90
2019-03-26T21:59:03.505Z,99.90
2019-03-26T22:01:31.896Z,99.90
2019-03-26T22:04:00.295Z,99.90
2019-03-26T22:06:28.679Z,99.90
2019-03-26T22:08:57.109Z,99.90
2019-03-26T22:11:25.486Z,99.90
2019-03-26T22:13:53.880Z,99.90
2019-03-26T22:16:22.300Z,99.90
2019-03-26T22:18:50.699Z,99.90
2019-03-26T22:21:19.102Z,99.90
2019-03-26T22:23:47.530Z,99.90
2019-03-26T22:26:15.932Z,99.90
2019-03-26T22:28:44.312Z,99.90
2019-03-26T22:31:12.718Z,99.90
2019-03-26T22:33:41.117Z,99.90
2019-03-26T22:36:09.494Z,99.90
2019-03-26T22:38:37.923Z,99.90
2019-03-26T22:41:06.314Z,99.90
2019-03-26T22:43:34.734Z,99.90
2019-03-26T22:46:03.115Z,99.90
2019-03-26T22:48:31.499Z,99.90
2019-03-26T22:50:59.888Z,99.90
2019-03-26T22:53:28.285Z,99.90
2019-03-26T22:55:56.679Z,99.90
2019-03-26T22:58:25.046Z,99.90
2019-03-26T23:00:53.748Z,99.90
2019-03-26T23:03:22.094Z,99.90
2019-03-26T23:05:50.500Z,99.90
2019-03-26T23:08:18.879Z,99.90
2019-03-26T23:10:47.292Z,99.90
2019-03-26T23:13:15.695Z,99.90
2019-03-26T23:15:44.152Z,99.90
2019-03-26T23:18:12.540Z,99.90
2019-03-26T23:20:40.924Z,99.90
2019-03-26T23:23:09.334Z,99.90
2019-03-26T23:25:37.714Z,99.90
2019-03-26T23:28:06.116Z,99.90
2019-03-26T23:30:34.499Z,99.90
2019-03-26T23:33:02.895Z,99.90
2019-03-26T23:35:31.296Z,99.90
2019-03-26T23:37:59.775Z,99.90
2019-03-26T23:40:28.191Z,99.90
2019-03-26T23:42:56.634Z,99.90
2019-03-26T23:45:25.937Z,99.90
2019-03-26T23:47:54.351Z,99.90
2019-03-26T23:50:22.729Z,99.90
2019-03-26T23:52:51.151Z,99.90
2019-03-26T23:55:19.527Z,99.90
2019-03-26T23:57:47.942Z,99.90
